sensor_id;sensor_type;location;lat;lon;timestamp;P1;durP1;ratioP1;P2;durP2;ratioP2
19095;SDS011;9680;52.520;13.332;2023-04-21T00:01:23;12.48;;;5.25;;
19095;SDS011;9680;52.520;13.332;2023-04-21T00:03:51;13.50;;;5.85;;
19095;SDS011;9680;52.520;13.332;2023-04-21T00:06:20;13.35;;;5.63;;
19095;SDS011;9680;52.520;13.332;2023-04-21T00:08:47;12.63;;;5.57;;
19095;SDS011;9680;52.520;13.332;2023-04-21T00:11:14;15.40;;;6.05;;
19095;SDS011;9680;52.520;13.332;2023-04-21T00:13:42;12.97;;;5.90;;
19095;SDS011;9680;52.520;13.332;2023-04-21T00:16:09;21.37;;;6.30;;
19095;SDS011;9680;52.520;13.332;2023-04-21T00:18:36;13.63;;;5.70;;
19095;SDS011;9680;52.520;13.332;2023-04-21T00:21:02;13.73;;;6.30;;
19095;SDS011;9680;52.520;13.332;2023-04-21T00:23:31;17.80;;;6.33;;
19095;SDS011;9680;52.520;13.332;2023-04-21T00:25:58;14.67;;;5.70;;
19095;SDS011;9680;52.520;13.332;2023-04-21T00:28:26;15.00;;;5.80;;
19095;SDS011;9680;52.520;13.332;2023-04-21T00:30:55;12.13;;;5.87;;
19095;SDS011;9680;52.520;13.332;2023-04-21T00:33:22;19.17;;;5.40;;
19095;SDS011;9680;52.520;13.332;2023-04-21T00:35:49;15.83;;;6.07;;
19095;SDS011;9680;52.520;13.332;2023-04-21T00:38:18;14.20;;;5.97;;
19095;SDS011;9680;52.520;13.332;2023-04-21T00:40:46;14.37;;;6.03;;
19095;SDS011;9680;52.520;13.332;2023-04-21T00:43:13;11.85;;;5.93;;
19095;SDS011;9680;52.520;13.332;2023-04-21T00:45:40;15.57;;;6.53;;
19095;SDS011;9680;52.520;13.332;2023-04-21T00:48:07;16.73;;;6.50;;
19095;SDS011;9680;52.520;13.332;2023-04-21T00:50:33;15.88;;;6.72;;
19095;SDS011;9680;52.520;13.332;2023-04-21T00:53:00;15.83;;;6.13;;
19095;SDS011;9680;52.520;13.332;2023-04-21T00:55:28;13.27;;;6.60;;
19095;SDS011;9680;52.520;13.332;2023-04-21T00:57:57;16.07;;;6.63;;
19095;SDS011;9680;52.520;13.332;2023-04-21T01:00:26;20.07;;;6.63;;
19095;SDS011;9680;52.520;13.332;2023-04-21T01:02:53;19.63;;;7.23;;
19095;SDS011;9680;52.520;13.332;2023-04-21T01:05:20;14.03;;;7.20;;
19095;SDS011;9680;52.520;13.332;2023-04-21T01:07:47;16.40;;;6.90;;
19095;SDS011;9680;52.520;13.332;2023-04-21T01:10:14;16.40;;;6.60;;
19095;SDS011;9680;52.520;13.332;2023-04-21T01:12:44;13.40;;;6.93;;
19095;SDS011;9680;52.520;13.332;2023-04-21T01:15:14;20.47;;;7.80;;
19095;SDS011;9680;52.520;13.332;2023-04-21T01:17:41;15.70;;;7.13;;
19095;SDS011;9680;52.520;13.332;2023-04-21T01:20:12;14.63;;;7.30;;
19095;SDS011;9680;52.520;13.332;2023-04-21T01:22:41;18.17;;;7.80;;
19095;SDS011;9680;52.520;13.332;2023-04-21T01:25:10;16.30;;;7.77;;
19095;SDS011;9680;52.520;13.332;2023-04-21T01:27:37;18.60;;;7.47;;
19095;SDS011;9680;52.520;13.332;2023-04-21T01:30:04;20.03;;;8.53;;
19095;SDS011;9680;52.520;13.332;2023-04-21T01:32:33;27.93;;;8.37;;
19095;SDS011;9680;52.520;13.332;2023-04-21T01:35:00;18.27;;;7.73;;
19095;SDS011;9680;52.520;13.332;2023-04-21T01:37:29;22.27;;;8.00;;
19095;SDS011;9680;52.520;13.332;2023-04-21T01:39:59;22.93;;;8.40;;
19095;SDS011;9680;52.520;13.332;2023-04-21T01:42:32;18.80;;;8.33;;
19095;SDS011;9680;52.520;13.332;2023-04-21T01:45:00;15.53;;;8.20;;
19095;SDS011;9680;52.520;13.332;2023-04-21T01:47:27;19.10;;;7.93;;
19095;SDS011;9680;52.520;13.332;2023-04-21T01:49:54;19.83;;;8.10;;
19095;SDS011;9680;52.520;13.332;2023-04-21T01:52:20;14.47;;;7.83;;
19095;SDS011;9680;52.520;13.332;2023-04-21T01:54:47;17.50;;;8.40;;
19095;SDS011;9680;52.520;13.332;2023-04-21T01:57:16;22.30;;;8.23;;
19095;SDS011;9680;52.520;13.332;2023-04-21T01:59:43;17.17;;;8.03;;
19095;SDS011;9680;52.520;13.332;2023-04-21T02:02:10;17.97;;;8.30;;
19095;SDS011;9680;52.520;13.332;2023-04-21T02:04:36;17.37;;;8.57;;
19095;SDS011;9680;52.520;13.332;2023-04-21T02:07:04;22.23;;;8.20;;
19095;SDS011;9680;52.520;13.332;2023-04-21T02:09:31;16.03;;;8.77;;
19095;SDS011;9680;52.520;13.332;2023-04-21T02:11:58;14.70;;;8.27;;
19095;SDS011;9680;52.520;13.332;2023-04-21T02:14:27;19.57;;;8.23;;
19095;SDS011;9680;52.520;13.332;2023-04-21T02:16:54;21.50;;;9.30;;
19095;SDS011;9680;52.520;13.332;2023-04-21T02:19:21;18.67;;;8.50;;
19095;SDS011;9680;52.520;13.332;2023-04-21T02:21:48;17.87;;;9.03;;
19095;SDS011;9680;52.520;13.332;2023-04-21T02:24:15;15.93;;;8.80;;
19095;SDS011;9680;52.520;13.332;2023-04-21T02:26:44;18.73;;;8.63;;
19095;SDS011;9680;52.520;13.332;2023-04-21T02:29:10;20.43;;;9.10;;
19095;SDS011;9680;52.520;13.332;2023-04-21T02:31:39;18.67;;;8.37;;
19095;SDS011;9680;52.520;13.332;2023-04-21T02:34:07;19.53;;;8.57;;
19095;SDS011;9680;52.520;13.332;2023-04-21T02:36:33;16.77;;;8.60;;
19095;SDS011;9680;52.520;13.332;2023-04-21T02:39:00;21.07;;;9.07;;
19095;SDS011;9680;52.520;13.332;2023-04-21T02:41:29;22.60;;;9.73;;
19095;SDS011;9680;52.520;13.332;2023-04-21T02:43:56;19.33;;;10.40;;
19095;SDS011;9680;52.520;13.332;2023-04-21T02:46:22;25.80;;;11.70;;
19095;SDS011;9680;52.520;13.332;2023-04-21T02:48:50;28.00;;;12.93;;
19095;SDS011;9680;52.520;13.332;2023-04-21T02:51:17;31.70;;;14.20;;
19095;SDS011;9680;52.520;13.332;2023-04-21T02:53:44;35.70;;;15.97;;
19095;SDS011;9680;52.520;13.332;2023-04-21T02:56:11;49.13;;;18.80;;
19095;SDS011;9680;52.520;13.332;2023-04-21T02:58:38;47.83;;;20.07;;
19095;SDS011;9680;52.520;13.332;2023-04-21T03:01:04;52.03;;;21.23;;
19095;SDS011;9680;52.520;13.332;2023-04-21T03:03:33;56.33;;;22.50;;
19095;SDS011;9680;52.520;13.332;2023-04-21T03:06:02;58.30;;;22.30;;
19095;SDS011;9680;52.520;13.332;2023-04-21T03:08:30;54.63;;;21.87;;
19095;SDS011;9680;52.520;13.332;2023-04-21T03:10:57;57.83;;;22.50;;
19095;SDS011;9680;52.520;13.332;2023-04-21T03:13:25;47.10;;;18.93;;
19095;SDS011;9680;52.520;13.332;2023-04-21T03:15:51;36.70;;;16.23;;
19095;SDS011;9680;52.520;13.332;2023-04-21T03:18:19;30.80;;;14.97;;
19095;SDS011;9680;52.520;13.332;2023-04-21T03:20:45;36.57;;;14.03;;
19095;SDS011;9680;52.520;13.332;2023-04-21T03:23:14;26.80;;;13.40;;
19095;SDS011;9680;52.520;13.332;2023-04-21T03:25:41;28.73;;;12.37;;
19095;SDS011;9680;52.520;13.332;2023-04-21T03:28:09;27.60;;;11.53;;
19095;SDS011;9680;52.520;13.332;2023-04-21T03:30:36;23.63;;;10.90;;
19095;SDS011;9680;52.520;13.332;2023-04-21T03:33:03;20.10;;;10.60;;
19095;SDS011;9680;52.520;13.332;2023-04-21T03:35:31;21.90;;;10.30;;
19095;SDS011;9680;52.520;13.332;2023-04-21T03:37:58;28.03;;;9.90;;
19095;SDS011;9680;52.520;13.332;2023-04-21T03:40:26;19.90;;;9.43;;
19095;SDS011;9680;52.520;13.332;2023-04-21T03:42:54;17.87;;;9.43;;
19095;SDS011;9680;52.520;13.332;2023-04-21T03:45:20;23.73;;;9.70;;
19095;SDS011;9680;52.520;13.332;2023-04-21T03:47:50;21.83;;;9.33;;
19095;SDS011;9680;52.520;13.332;2023-04-21T03:50:18;17.27;;;9.23;;
19095;SDS011;9680;52.520;13.332;2023-04-21T03:52:45;21.37;;;9.93;;
19095;SDS011;9680;52.520;13.332;2023-04-21T03:55:12;19.50;;;9.57;;
19095;SDS011;9680;52.520;13.332;2023-04-21T03:57:40;23.17;;;9.60;;
19095;SDS011;9680;52.520;13.332;2023-04-21T04:00:07;16.30;;;9.17;;
19095;SDS011;9680;52.520;13.332;2023-04-21T04:02:38;19.80;;;10.30;;
19095;SDS011;9680;52.520;13.332;2023-04-21T04:05:05;19.23;;;9.23;;
19095;SDS011;9680;52.520;13.332;2023-04-21T04:07:33;22.53;;;9.43;;
19095;SDS011;9680;52.520;13.332;2023-04-21T04:10:00;18.87;;;9.13;;
19095;SDS011;9680;52.520;13.332;2023-04-21T04:12:27;18.47;;;9.23;;
19095;SDS011;9680;52.520;13.332;2023-04-21T04:14:55;19.23;;;10.13;;
19095;SDS011;9680;52.520;13.332;2023-04-21T04:17:22;18.83;;;9.83;;
19095;SDS011;9680;52.520;13.332;2023-04-21T04:19:49;20.60;;;10.07;;
19095;SDS011;9680;52.520;13.332;2023-04-21T04:22:15;19.77;;;9.70;;
19095;SDS011;9680;52.520;13.332;2023-04-21T04:24:42;20.70;;;9.70;;
19095;SDS011;9680;52.520;13.332;2023-04-21T04:27:10;22.90;;;9.93;;
19095;SDS011;9680;52.520;13.332;2023-04-21T04:29:38;27.83;;;10.20;;
19095;SDS011;9680;52.520;13.332;2023-04-21T04:32:06;20.33;;;9.70;;
19095;SDS011;9680;52.520;13.332;2023-04-21T04:34:35;16.93;;;9.50;;
19095;SDS011;9680;52.520;13.332;2023-04-21T04:37:02;19.83;;;9.97;;
19095;SDS011;9680;52.520;13.332;2023-04-21T04:39:31;19.50;;;10.50;;
19095;SDS011;9680;52.520;13.332;2023-04-21T04:41:58;19.77;;;9.60;;
19095;SDS011;9680;52.520;13.332;2023-04-21T04:44:25;21.83;;;9.87;;
19095;SDS011;9680;52.520;13.332;2023-04-21T04:46:52;20.27;;;9.70;;
19095;SDS011;9680;52.520;13.332;2023-04-21T04:49:20;23.17;;;9.80;;
19095;SDS011;9680;52.520;13.332;2023-04-21T04:51:47;18.53;;;9.93;;
19095;SDS011;9680;52.520;13.332;2023-04-21T04:54:13;22.13;;;10.60;;
19095;SDS011;9680;52.520;13.332;2023-04-21T04:56:40;22.27;;;10.30;;
19095;SDS011;9680;52.520;13.332;2023-04-21T04:59:07;22.97;;;10.67;;
19095;SDS011;9680;52.520;13.332;2023-04-21T05:01:35;22.20;;;10.27;;
19095;SDS011;9680;52.520;13.332;2023-04-21T05:04:02;18.13;;;9.77;;
19095;SDS011;9680;52.520;13.332;2023-04-21T05:06:30;22.27;;;10.00;;
19095;SDS011;9680;52.520;13.332;2023-04-21T05:08:57;20.57;;;10.10;;
19095;SDS011;9680;52.520;13.332;2023-04-21T05:11:24;20.63;;;10.23;;
19095;SDS011;9680;52.520;13.332;2023-04-21T05:13:51;20.70;;;10.43;;
19095;SDS011;9680;52.520;13.332;2023-04-21T05:16:17;19.50;;;10.30;;
19095;SDS011;9680;52.520;13.332;2023-04-21T05:18:44;19.87;;;10.30;;
19095;SDS011;9680;52.520;13.332;2023-04-21T05:21:11;21.47;;;10.10;;
19095;SDS011;9680;52.520;13.332;2023-04-21T05:23:39;20.27;;;10.33;;
19095;SDS011;9680;52.520;13.332;2023-04-21T05:26:06;20.27;;;10.20;;
19095;SDS011;9680;52.520;13.332;2023-04-21T05:28:33;18.27;;;9.83;;
19095;SDS011;9680;52.520;13.332;2023-04-21T05:31:00;17.47;;;9.77;;
19095;SDS011;9680;52.520;13.332;2023-04-21T05:33:26;18.67;;;10.27;;
19095;SDS011;9680;52.520;13.332;2023-04-21T05:35:55;21.43;;;10.70;;
19095;SDS011;9680;52.520;13.332;2023-04-21T05:38:22;20.83;;;10.27;;
19095;SDS011;9680;52.520;13.332;2023-04-21T05:40:53;18.50;;;9.93;;
19095;SDS011;9680;52.520;13.332;2023-04-21T05:43:20;17.10;;;9.67;;
19095;SDS011;9680;52.520;13.332;2023-04-21T05:45:47;18.20;;;10.00;;
19095;SDS011;9680;52.520;13.332;2023-04-21T05:48:14;18.33;;;9.50;;
19095;SDS011;9680;52.520;13.332;2023-04-21T05:50:41;22.10;;;10.20;;
19095;SDS011;9680;52.520;13.332;2023-04-21T05:53:08;20.23;;;10.70;;
19095;SDS011;9680;52.520;13.332;2023-04-21T05:55:35;26.13;;;10.50;;
19095;SDS011;9680;52.520;13.332;2023-04-21T05:58:04;25.37;;;10.03;;
19095;SDS011;9680;52.520;13.332;2023-04-21T06:00:31;25.47;;;10.63;;
19095;SDS011;9680;52.520;13.332;2023-04-21T06:02:57;29.27;;;10.27;;
19095;SDS011;9680;52.520;13.332;2023-04-21T06:05:24;20.10;;;10.10;;
19095;SDS011;9680;52.520;13.332;2023-04-21T06:07:51;23.33;;;10.80;;
19095;SDS011;9680;52.520;13.332;2023-04-21T06:10:17;21.40;;;10.13;;
19095;SDS011;9680;52.520;13.332;2023-04-21T06:12:45;17.43;;;9.90;;
19095;SDS011;9680;52.520;13.332;2023-04-21T06:15:13;18.50;;;10.07;;
19095;SDS011;9680;52.520;13.332;2023-04-21T06:17:40;17.77;;;10.00;;
19095;SDS011;9680;52.520;13.332;2023-04-21T06:20:07;18.42;;;10.02;;
19095;SDS011;9680;52.520;13.332;2023-04-21T06:22:35;20.37;;;9.50;;
19095;SDS011;9680;52.520;13.332;2023-04-21T06:25:02;20.97;;;10.37;;
19095;SDS011;9680;52.520;13.332;2023-04-21T06:27:29;23.70;;;10.05;;
19095;SDS011;9680;52.520;13.332;2023-04-21T06:29:56;22.58;;;10.15;;
19095;SDS011;9680;52.520;13.332;2023-04-21T06:32:24;17.38;;;9.50;;
19095;SDS011;9680;52.520;13.332;2023-04-21T06:34:51;18.80;;;9.77;;
19095;SDS011;9680;52.520;13.332;2023-04-21T06:37:18;19.48;;;9.80;;
19095;SDS011;9680;52.520;13.332;2023-04-21T06:39:45;21.98;;;9.77;;
19095;SDS011;9680;52.520;13.332;2023-04-21T06:42:12;18.65;;;9.80;;
19095;SDS011;9680;52.520;13.332;2023-04-21T06:44:41;18.90;;;9.90;;
19095;SDS011;9680;52.520;13.332;2023-04-21T06:47:08;18.23;;;9.90;;
19095;SDS011;9680;52.520;13.332;2023-04-21T06:49:36;20.25;;;10.10;;
19095;SDS011;9680;52.520;13.332;2023-04-21T06:52:03;20.63;;;9.43;;
19095;SDS011;9680;52.520;13.332;2023-04-21T06:54:30;19.58;;;9.63;;
19095;SDS011;9680;52.520;13.332;2023-04-21T06:56:57;18.25;;;9.23;;
19095;SDS011;9680;52.520;13.332;2023-04-21T06:59:24;22.60;;;10.15;;
19095;SDS011;9680;52.520;13.332;2023-04-21T07:01:51;23.60;;;9.35;;
19095;SDS011;9680;52.520;13.332;2023-04-21T07:04:17;20.55;;;10.07;;
19095;SDS011;9680;52.520;13.332;2023-04-21T07:06:46;26.77;;;10.55;;
19095;SDS011;9680;52.520;13.332;2023-04-21T07:09:13;18.45;;;9.50;;
19095;SDS011;9680;52.520;13.332;2023-04-21T07:11:40;17.52;;;9.50;;
19095;SDS011;9680;52.520;13.332;2023-04-21T07:14:07;19.73;;;9.48;;
19095;SDS011;9680;52.520;13.332;2023-04-21T07:16:33;22.98;;;9.43;;
19095;SDS011;9680;52.520;13.332;2023-04-21T07:19:00;20.95;;;10.45;;
19095;SDS011;9680;52.520;13.332;2023-04-21T07:21:27;19.42;;;9.63;;
19095;SDS011;9680;52.520;13.332;2023-04-21T07:23:59;18.58;;;9.43;;
19095;SDS011;9680;52.520;13.332;2023-04-21T07:26:26;20.05;;;9.70;;
19095;SDS011;9680;52.520;13.332;2023-04-21T07:28:53;20.83;;;9.88;;
19095;SDS011;9680;52.520;13.332;2023-04-21T07:31:24;24.65;;;9.60;;
19095;SDS011;9680;52.520;13.332;2023-04-21T07:33:51;18.90;;;9.02;;
19095;SDS011;9680;52.520;13.332;2023-04-21T07:36:18;18.65;;;9.00;;
19095;SDS011;9680;52.520;13.332;2023-04-21T07:38:44;21.88;;;9.65;;
19095;SDS011;9680;52.520;13.332;2023-04-21T07:41:13;17.70;;;9.00;;
19095;SDS011;9680;52.520;13.332;2023-04-21T07:43:39;18.75;;;9.07;;
19095;SDS011;9680;52.520;13.332;2023-04-21T07:46:06;19.02;;;9.55;;
19095;SDS011;9680;52.520;13.332;2023-04-21T07:48:33;16.27;;;8.93;;
19095;SDS011;9680;52.520;13.332;2023-04-21T07:51:00;20.08;;;9.98;;
19095;SDS011;9680;52.520;13.332;2023-04-21T07:53:27;20.05;;;9.93;;
19095;SDS011;9680;52.520;13.332;2023-04-21T07:55:54;17.55;;;9.93;;
19095;SDS011;9680;52.520;13.332;2023-04-21T07:58:22;16.13;;;9.20;;
19095;SDS011;9680;52.520;13.332;2023-04-21T08:00:49;28.60;;;9.35;;
19095;SDS011;9680;52.520;13.332;2023-04-21T08:03:16;17.65;;;9.55;;
19095;SDS011;9680;52.520;13.332;2023-04-21T08:05:43;17.15;;;9.50;;
19095;SDS011;9680;52.520;13.332;2023-04-21T08:08:10;18.52;;;9.25;;
19095;SDS011;9680;52.520;13.332;2023-04-21T08:10:37;22.98;;;9.45;;
19095;SDS011;9680;52.520;13.332;2023-04-21T08:13:03;17.20;;;9.05;;
19095;SDS011;9680;52.520;13.332;2023-04-21T08:15:32;20.08;;;9.32;;
19095;SDS011;9680;52.520;13.332;2023-04-21T08:17:59;21.65;;;9.20;;
19095;SDS011;9680;52.520;13.332;2023-04-21T08:20:26;17.98;;;8.75;;
19095;SDS011;9680;52.520;13.332;2023-04-21T08:22:53;19.00;;;9.00;;
19095;SDS011;9680;52.520;13.332;2023-04-21T08:25:20;18.35;;;8.90;;
19095;SDS011;9680;52.520;13.332;2023-04-21T08:27:47;15.07;;;9.23;;
19095;SDS011;9680;52.520;13.332;2023-04-21T08:30:14;16.80;;;9.30;;
19095;SDS011;9680;52.520;13.332;2023-04-21T08:32:42;17.80;;;8.65;;
19095;SDS011;9680;52.520;13.332;2023-04-21T08:35:09;18.23;;;9.07;;
19095;SDS011;9680;52.520;13.332;2023-04-21T08:37:36;16.23;;;8.95;;
19095;SDS011;9680;52.520;13.332;2023-04-21T08:40:10;15.82;;;9.05;;
19095;SDS011;9680;52.520;13.332;2023-04-21T08:42:37;17.45;;;8.85;;
19095;SDS011;9680;52.520;13.332;2023-04-21T08:45:05;16.90;;;8.77;;
19095;SDS011;9680;52.520;13.332;2023-04-21T08:47:32;16.63;;;8.40;;
19095;SDS011;9680;52.520;13.332;2023-04-21T08:50:01;17.58;;;8.85;;
19095;SDS011;9680;52.520;13.332;2023-04-21T08:52:28;19.25;;;8.07;;
19095;SDS011;9680;52.520;13.332;2023-04-21T08:54:55;15.82;;;8.80;;
19095;SDS011;9680;52.520;13.332;2023-04-21T08:57:22;17.20;;;8.75;;
19095;SDS011;9680;52.520;13.332;2023-04-21T08:59:48;16.08;;;8.23;;
19095;SDS011;9680;52.520;13.332;2023-04-21T09:02:15;18.08;;;9.07;;
19095;SDS011;9680;52.520;13.332;2023-04-21T09:04:44;22.50;;;9.20;;
19095;SDS011;9680;52.520;13.332;2023-04-21T09:07:28;18.58;;;8.65;;
19095;SDS011;9680;52.520;13.332;2023-04-21T09:09:56;20.30;;;9.20;;
19095;SDS011;9680;52.520;13.332;2023-04-21T09:12:24;15.02;;;8.45;;
19095;SDS011;9680;52.520;13.332;2023-04-21T09:14:52;14.68;;;8.23;;
19095;SDS011;9680;52.520;13.332;2023-04-21T09:17:20;14.98;;;8.77;;
19095;SDS011;9680;52.520;13.332;2023-04-21T09:19:48;17.33;;;9.13;;
19095;SDS011;9680;52.520;13.332;2023-04-21T09:22:17;15.35;;;8.77;;
19095;SDS011;9680;52.520;13.332;2023-04-21T09:24:44;16.23;;;8.57;;
19095;SDS011;9680;52.520;13.332;2023-04-21T09:27:12;18.65;;;8.68;;
19095;SDS011;9680;52.520;13.332;2023-04-21T09:29:44;12.60;;;7.82;;
19095;SDS011;9680;52.520;13.332;2023-04-21T09:32:15;14.30;;;8.30;;
19095;SDS011;9680;52.520;13.332;2023-04-21T09:34:43;15.07;;;8.73;;
19095;SDS011;9680;52.520;13.332;2023-04-21T09:37:11;20.58;;;8.27;;
19095;SDS011;9680;52.520;13.332;2023-04-21T09:39:43;21.67;;;8.73;;
19095;SDS011;9680;52.520;13.332;2023-04-21T09:42:11;18.02;;;8.20;;
19095;SDS011;9680;52.520;13.332;2023-04-21T09:44:38;17.50;;;8.65;;
19095;SDS011;9680;52.520;13.332;2023-04-21T09:47:04;16.55;;;7.80;;
19095;SDS011;9680;52.520;13.332;2023-04-21T09:49:36;13.25;;;7.90;;
19095;SDS011;9680;52.520;13.332;2023-04-21T09:52:09;14.43;;;7.80;;
19095;SDS011;9680;52.520;13.332;2023-04-21T09:54:44;16.15;;;8.00;;
19095;SDS011;9680;52.520;13.332;2023-04-21T09:57:17;13.38;;;8.43;;
19095;SDS011;9680;52.520;13.332;2023-04-21T09:59:49;22.23;;;8.10;;
19095;SDS011;9680;52.520;13.332;2023-04-21T10:02:20;13.45;;;7.60;;
19095;SDS011;9680;52.520;13.332;2023-04-21T10:04:51;14.20;;;8.10;;
19095;SDS011;9680;52.520;13.332;2023-04-21T10:07:19;17.02;;;7.40;;
19095;SDS011;9680;52.520;13.332;2023-04-21T10:09:47;12.90;;;7.70;;
19095;SDS011;9680;52.520;13.332;2023-04-21T10:12:17;16.10;;;7.28;;
19095;SDS011;9680;52.520;13.332;2023-04-21T10:14:44;12.55;;;7.70;;
19095;SDS011;9680;52.520;13.332;2023-04-21T10:17:12;13.43;;;7.55;;
19095;SDS011;9680;52.520;13.332;2023-04-21T10:19:46;12.02;;;7.30;;
19095;SDS011;9680;52.520;13.332;2023-04-21T10:22:14;12.32;;;7.40;;
19095;SDS011;9680;52.520;13.332;2023-04-21T10:24:55;13.65;;;7.68;;
19095;SDS011;9680;52.520;13.332;2023-04-21T10:27:31;17.55;;;8.15;;
19095;SDS011;9680;52.520;13.332;2023-04-21T10:29:59;12.00;;;7.32;;
19095;SDS011;9680;52.520;13.332;2023-04-21T10:32:38;16.42;;;7.20;;
19095;SDS011;9680;52.520;13.332;2023-04-21T10:35:09;11.82;;;7.32;;
19095;SDS011;9680;52.520;13.332;2023-04-21T10:37:37;12.38;;;6.50;;
19095;SDS011;9680;52.520;13.332;2023-04-21T10:40:07;12.10;;;6.72;;
19095;SDS011;9680;52.520;13.332;2023-04-21T10:46:30;10.20;;;6.63;;
19095;SDS011;9680;52.520;13.332;2023-04-21T10:49:03;11.63;;;6.70;;
19095;SDS011;9680;52.520;13.332;2023-04-21T10:51:30;12.15;;;6.88;;
19095;SDS011;9680;52.520;13.332;2023-04-21T10:53:58;11.60;;;6.63;;
19095;SDS011;9680;52.520;13.332;2023-04-21T10:56:27;13.27;;;7.10;;
19095;SDS011;9680;52.520;13.332;2023-04-21T10:58:54;11.63;;;6.70;;
19095;SDS011;9680;52.520;13.332;2023-04-21T11:01:22;14.75;;;6.53;;
19095;SDS011;9680;52.520;13.332;2023-04-21T11:03:49;13.05;;;6.90;;
19095;SDS011;9680;52.520;13.332;2023-04-21T11:06:16;12.73;;;6.28;;
19095;SDS011;9680;52.520;13.332;2023-04-21T11:11:32;18.52;;;7.15;;
19095;SDS011;9680;52.520;13.332;2023-04-21T11:14:00;10.82;;;6.80;;
19095;SDS011;9680;52.520;13.332;2023-04-21T11:16:27;10.90;;;7.03;;
19095;SDS011;9680;52.520;13.332;2023-04-21T11:18:54;10.75;;;6.40;;
19095;SDS011;9680;52.520;13.332;2023-04-21T11:21:21;12.60;;;6.50;;
19095;SDS011;9680;52.520;13.332;2023-04-21T11:23:49;11.25;;;7.10;;
19095;SDS011;9680;52.520;13.332;2023-04-21T11:26:17;17.50;;;6.65;;
19095;SDS011;9680;52.520;13.332;2023-04-21T11:28:49;11.50;;;7.20;;
19095;SDS011;9680;52.520;13.332;2023-04-21T11:31:16;9.98;;;6.03;;
19095;SDS011;9680;52.520;13.332;2023-04-21T11:33:43;14.05;;;7.25;;
19095;SDS011;9680;52.520;13.332;2023-04-21T11:36:10;12.40;;;6.80;;
19095;SDS011;9680;52.520;13.332;2023-04-21T11:38:37;10.90;;;6.90;;
19095;SDS011;9680;52.520;13.332;2023-04-21T11:41:05;11.13;;;6.50;;
19095;SDS011;9680;52.520;13.332;2023-04-21T11:43:33;11.23;;;6.93;;
19095;SDS011;9680;52.520;13.332;2023-04-21T11:46:12;12.55;;;7.20;;
19095;SDS011;9680;52.520;13.332;2023-04-21T11:48:43;14.68;;;6.88;;
19095;SDS011;9680;52.520;13.332;2023-04-21T11:51:13;15.15;;;7.13;;
19095;SDS011;9680;52.520;13.332;2023-04-21T11:53:41;10.57;;;6.47;;
19095;SDS011;9680;52.520;13.332;2023-04-21T11:56:08;9.63;;;6.53;;
19095;SDS011;9680;52.520;13.332;2023-04-21T11:58:36;11.07;;;6.40;;
19095;SDS011;9680;52.520;13.332;2023-04-21T12:01:06;11.60;;;6.95;;
19095;SDS011;9680;52.520;13.332;2023-04-21T12:03:34;14.07;;;7.10;;
19095;SDS011;9680;52.520;13.332;2023-04-21T12:06:01;13.48;;;7.22;;
19095;SDS011;9680;52.520;13.332;2023-04-21T12:08:28;11.50;;;6.80;;
19095;SDS011;9680;52.520;13.332;2023-04-21T12:10:55;11.55;;;6.95;;
19095;SDS011;9680;52.520;13.332;2023-04-21T12:13:23;16.92;;;7.30;;
19095;SDS011;9680;52.520;13.332;2023-04-21T12:15:52;11.80;;;6.28;;
19095;SDS011;9680;52.520;13.332;2023-04-21T12:18:19;10.23;;;7.00;;
19095;SDS011;9680;52.520;13.332;2023-04-21T12:20:51;11.73;;;6.60;;
19095;SDS011;9680;52.520;13.332;2023-04-21T12:23:18;12.63;;;6.68;;
19095;SDS011;9680;52.520;13.332;2023-04-21T12:25:45;12.27;;;7.18;;
19095;SDS011;9680;52.520;13.332;2023-04-21T12:28:13;11.95;;;6.82;;
19095;SDS011;9680;52.520;13.332;2023-04-21T12:30:42;14.13;;;6.97;;
19095;SDS011;9680;52.520;13.332;2023-04-21T12:33:09;10.70;;;7.00;;
19095;SDS011;9680;52.520;13.332;2023-04-21T12:35:36;12.32;;;6.75;;
19095;SDS011;9680;52.520;13.332;2023-04-21T12:38:04;10.57;;;6.60;;
19095;SDS011;9680;52.520;13.332;2023-04-21T12:40:31;11.18;;;6.85;;
19095;SDS011;9680;52.520;13.332;2023-04-21T12:43:12;14.25;;;6.90;;
19095;SDS011;9680;52.520;13.332;2023-04-21T12:45:38;13.20;;;7.07;;
19095;SDS011;9680;52.520;13.332;2023-04-21T12:48:05;10.60;;;6.90;;
19095;SDS011;9680;52.520;13.332;2023-04-21T12:50:32;10.65;;;6.63;;
19095;SDS011;9680;52.520;13.332;2023-04-21T12:52:59;12.68;;;6.68;;
19095;SDS011;9680;52.520;13.332;2023-04-21T12:55:27;11.63;;;6.53;;
19095;SDS011;9680;52.520;13.332;2023-04-21T12:57:53;10.70;;;6.47;;
19095;SDS011;9680;52.520;13.332;2023-04-21T13:00:20;10.32;;;6.50;;
19095;SDS011;9680;52.520;13.332;2023-04-21T13:02:47;13.18;;;6.15;;
19095;SDS011;9680;52.520;13.332;2023-04-21T13:05:14;10.02;;;6.25;;
19095;SDS011;9680;52.520;13.332;2023-04-21T13:07:40;10.13;;;6.15;;
19095;SDS011;9680;52.520;13.332;2023-04-21T13:10:07;9.55;;;6.13;;
19095;SDS011;9680;52.520;13.332;2023-04-21T13:12:36;12.35;;;5.75;;
19095;SDS011;9680;52.520;13.332;2023-04-21T13:15:03;9.95;;;5.93;;
19095;SDS011;9680;52.520;13.332;2023-04-21T13:17:31;13.05;;;6.47;;
19095;SDS011;9680;52.520;13.332;2023-04-21T13:19:58;10.32;;;6.50;;
19095;SDS011;9680;52.520;13.332;2023-04-21T13:22:24;18.42;;;6.10;;
19095;SDS011;9680;52.520;13.332;2023-04-21T13:24:51;13.20;;;6.10;;
19095;SDS011;9680;52.520;13.332;2023-04-21T13:27:18;10.43;;;6.18;;
19095;SDS011;9680;52.520;13.332;2023-04-21T13:29:46;10.48;;;6.20;;
19095;SDS011;9680;52.520;13.332;2023-04-21T13:32:13;10.13;;;6.28;;
19095;SDS011;9680;52.520;13.332;2023-04-21T13:34:40;9.43;;;6.25;;
19095;SDS011;9680;52.520;13.332;2023-04-21T13:37:07;9.93;;;5.57;;
19095;SDS011;9680;52.520;13.332;2023-04-21T13:39:36;10.40;;;6.00;;
19095;SDS011;9680;52.520;13.332;2023-04-21T13:42:04;9.10;;;5.80;;
19095;SDS011;9680;52.520;13.332;2023-04-21T13:44:31;9.35;;;5.95;;
19095;SDS011;9680;52.520;13.332;2023-04-21T13:46:59;10.52;;;6.38;;
19095;SDS011;9680;52.520;13.332;2023-04-21T13:49:26;9.93;;;6.18;;
19095;SDS011;9680;52.520;13.332;2023-04-21T13:51:52;8.52;;;6.10;;
19095;SDS011;9680;52.520;13.332;2023-04-21T13:54:19;10.60;;;5.97;;
19095;SDS011;9680;52.520;13.332;2023-04-21T13:56:46;11.75;;;5.68;;
19095;SDS011;9680;52.520;13.332;2023-04-21T13:59:13;10.48;;;6.35;;
19095;SDS011;9680;52.520;13.332;2023-04-21T14:01:40;9.90;;;6.20;;
19095;SDS011;9680;52.520;13.332;2023-04-21T14:04:08;11.18;;;6.55;;
19095;SDS011;9680;52.520;13.332;2023-04-21T14:06:35;10.30;;;6.22;;
19095;SDS011;9680;52.520;13.332;2023-04-21T14:09:02;10.80;;;6.65;;
19095;SDS011;9680;52.520;13.332;2023-04-21T14:11:30;11.38;;;6.55;;
19095;SDS011;9680;52.520;13.332;2023-04-21T14:13:57;15.63;;;5.88;;
19095;SDS011;9680;52.520;13.332;2023-04-21T14:16:23;12.52;;;6.00;;
19095;SDS011;9680;52.520;13.332;2023-04-21T14:18:50;12.30;;;6.07;;
19095;SDS011;9680;52.520;13.332;2023-04-21T14:21:18;18.17;;;5.85;;
19095;SDS011;9680;52.520;13.332;2023-04-21T14:23:45;10.90;;;5.82;;
19095;SDS011;9680;52.520;13.332;2023-04-21T14:26:11;9.35;;;5.85;;
19095;SDS011;9680;52.520;13.332;2023-04-21T14:28:38;9.15;;;6.00;;
19095;SDS011;9680;52.520;13.332;2023-04-21T14:31:05;9.80;;;6.03;;
19095;SDS011;9680;52.520;13.332;2023-04-21T14:33:32;10.13;;;5.80;;
19095;SDS011;9680;52.520;13.332;2023-04-21T14:35:59;12.55;;;6.28;;
19095;SDS011;9680;52.520;13.332;2023-04-21T14:38:27;9.10;;;5.50;;
19095;SDS011;9680;52.520;13.332;2023-04-21T14:40:54;7.60;;;5.53;;
19095;SDS011;9680;52.520;13.332;2023-04-21T14:43:21;9.10;;;5.50;;